LAX weather

Los Angeles International Airport
Los Angeles, California, United States

Public forecast

Using degrees Fahrenheit for public forecast. Weather courtesy of forecast.io.

METAR (pilot weather report)

Retrieved 2017/04/24 08:53 UTC (15 minutes ago):

KLAX 240853Z 03004KT 10SM BKN018 16/11 A2988

TAF (pilot weather forecast)

Retrieved 2017/04/24 06:54 UTC (2 hours ago):

TAF KLAX 240548Z 2406/2512 VRB03KT P6SM FEW015 SCT200 FM241000 VRB03KT P6SM OVC012 FM241700 26009KT P6SM SCT017 FM242000 26015KT P6SM SCT200 FM250300 30008KT P6SM SCT200